sensor_id;sensor_type;location;lat;lon;timestamp;pressure;altitude;pressure_sealevel;temperature;humidity
42415;BME280;28058;46.344;17.786;2023-03-24T00:01:54;118336.50;;;-144.97;62.28
42415;BME280;28058;46.344;17.786;2023-03-24T00:04:21;118336.50;;;-144.97;62.54
42415;BME280;28058;46.344;17.786;2023-03-24T00:06:50;118336.50;;;-144.97;62.37
42415;BME280;28058;46.344;17.786;2023-03-24T00:09:18;118336.50;;;-144.97;62.26
42415;BME280;28058;46.344;17.786;2023-03-24T00:11:45;118336.50;;;-144.97;62.04
42415;BME280;28058;46.344;17.786;2023-03-24T00:14:12;118336.50;;;-144.97;61.92
42415;BME280;28058;46.344;17.786;2023-03-24T00:16:39;118336.50;;;-144.97;62.63
42415;BME280;28058;46.344;17.786;2023-03-24T00:19:09;118336.50;;;-144.97;62.65
42415;BME280;28058;46.344;17.786;2023-03-24T00:21:36;118336.50;;;-144.97;63.31
42415;BME280;28058;46.344;17.786;2023-03-24T00:24:03;118336.50;;;-144.97;62.55
42415;BME280;28058;46.344;17.786;2023-03-24T00:26:30;118336.50;;;-144.97;62.99
42415;BME280;28058;46.344;17.786;2023-03-24T00:28:58;118336.50;;;-144.97;62.94
42415;BME280;28058;46.344;17.786;2023-03-24T00:31:24;118336.50;;;-144.97;62.87
42415;BME280;28058;46.344;17.786;2023-03-24T00:33:51;118336.50;;;-144.97;63.55
42415;BME280;28058;46.344;17.786;2023-03-24T00:36:18;118336.50;;;-144.97;64.45
42415;BME280;28058;46.344;17.786;2023-03-24T00:38:46;118336.50;;;-144.97;64.94
42415;BME280;28058;46.344;17.786;2023-03-24T00:41:13;118336.50;;;-144.97;65.50
42415;BME280;28058;46.344;17.786;2023-03-24T00:43:43;118336.50;;;-144.97;66.27
42415;BME280;28058;46.344;17.786;2023-03-24T00:46:10;118336.50;;;-144.97;66.13
42415;BME280;28058;46.344;17.786;2023-03-24T00:48:39;118336.50;;;-144.97;66.69
42415;BME280;28058;46.344;17.786;2023-03-24T00:51:07;118336.50;;;-144.97;66.88
42415;BME280;28058;46.344;17.786;2023-03-24T00:53:36;118336.50;;;-144.97;66.54
42415;BME280;28058;46.344;17.786;2023-03-24T00:56:03;118336.50;;;-144.97;66.40
42415;BME280;28058;46.344;17.786;2023-03-24T00:58:30;118336.50;;;-144.97;67.00
42415;BME280;28058;46.344;17.786;2023-03-24T01:00:59;118336.50;;;-144.97;67.00
42415;BME280;28058;46.344;17.786;2023-03-24T01:03:26;118336.50;;;-144.97;67.21
42415;BME280;28058;46.344;17.786;2023-03-24T01:05:54;118336.50;;;-144.97;66.94
42415;BME280;28058;46.344;17.786;2023-03-24T01:08:23;118336.50;;;-144.97;67.29
42415;BME280;28058;46.344;17.786;2023-03-24T01:10:51;118336.50;;;-144.97;66.81
42415;BME280;28058;46.344;17.786;2023-03-24T01:13:22;118336.50;;;-144.97;66.74
42415;BME280;28058;46.344;17.786;2023-03-24T01:15:49;118336.50;;;-144.97;67.31
42415;BME280;28058;46.344;17.786;2023-03-24T01:18:17;118336.50;;;-144.97;67.23
42415;BME280;28058;46.344;17.786;2023-03-24T01:20:44;118336.50;;;-144.97;67.33
42415;BME280;28058;46.344;17.786;2023-03-24T01:23:13;118336.50;;;-144.97;67.30
42415;BME280;28058;46.344;17.786;2023-03-24T01:25:40;118336.50;;;-144.97;67.19
42415;BME280;28058;46.344;17.786;2023-03-24T01:28:11;118336.50;;;-144.97;66.87
42415;BME280;28058;46.344;17.786;2023-03-24T01:30:38;118336.50;;;-144.97;67.78
42415;BME280;28058;46.344;17.786;2023-03-24T01:33:05;118336.50;;;-144.97;68.19
42415;BME280;28058;46.344;17.786;2023-03-24T01:35:32;118336.50;;;-144.97;67.73
42415;BME280;28058;46.344;17.786;2023-03-24T01:37:59;118336.50;;;-144.97;68.07
42415;BME280;28058;46.344;17.786;2023-03-24T01:40:27;118336.50;;;-144.97;68.82
42415;BME280;28058;46.344;17.786;2023-03-24T01:42:54;118336.50;;;-144.97;69.45
42415;BME280;28058;46.344;17.786;2023-03-24T01:48:15;118336.50;;;-144.97;70.00
42415;BME280;28058;46.344;17.786;2023-03-24T01:50:43;118336.50;;;-144.97;70.54
42415;BME280;28058;46.344;17.786;2023-03-24T01:53:11;118336.50;;;-144.97;70.81
42415;BME280;28058;46.344;17.786;2023-03-24T01:55:38;118336.50;;;-144.97;71.35
42415;BME280;28058;46.344;17.786;2023-03-24T01:58:05;118336.50;;;-144.97;71.66
42415;BME280;28058;46.344;17.786;2023-03-24T02:00:32;118336.50;;;-144.97;71.56
42415;BME280;28058;46.344;17.786;2023-03-24T02:03:00;118336.50;;;-144.97;72.16
42415;BME280;28058;46.344;17.786;2023-03-24T02:05:32;118336.50;;;-144.97;72.25
42415;BME280;28058;46.344;17.786;2023-03-24T02:10:32;118336.50;;;-144.97;72.54
42415;BME280;28058;46.344;17.786;2023-03-24T02:12:59;118336.50;;;-144.97;73.06
42415;BME280;28058;46.344;17.786;2023-03-24T02:15:27;118336.50;;;-144.97;73.18
42415;BME280;28058;46.344;17.786;2023-03-24T02:28:29;118336.50;;;-144.97;71.74
42415;BME280;28058;46.344;17.786;2023-03-24T02:31:04;118336.50;;;-144.97;72.05
42415;BME280;28058;46.344;17.786;2023-03-24T02:36:18;118336.50;;;-144.97;72.16
42415;BME280;28058;46.344;17.786;2023-03-24T02:41:38;118336.50;;;-144.97;72.13
42415;BME280;28058;46.344;17.786;2023-03-24T02:44:28;118336.50;;;-144.97;72.77
42415;BME280;28058;46.344;17.786;2023-03-24T02:47:01;118336.50;;;-144.97;72.58
42415;BME280;28058;46.344;17.786;2023-03-24T02:57:19;118336.50;;;-144.97;71.26
42415;BME280;28058;46.344;17.786;2023-03-24T03:00:02;118336.50;;;-144.97;71.00
42415;BME280;28058;46.344;17.786;2023-03-24T03:02:48;118336.50;;;-144.97;71.77
42415;BME280;28058;46.344;17.786;2023-03-24T03:05:21;118336.50;;;-144.97;69.96
42415;BME280;28058;46.344;17.786;2023-03-24T03:07:50;118336.50;;;-144.97;70.03
42415;BME280;28058;46.344;17.786;2023-03-24T03:10:23;118336.50;;;-144.97;69.32
42415;BME280;28058;46.344;17.786;2023-03-24T03:12:51;118336.50;;;-144.97;69.24
42415;BME280;28058;46.344;17.786;2023-03-24T03:15:27;118336.50;;;-144.97;68.16
42415;BME280;28058;46.344;17.786;2023-03-24T03:17:57;118336.50;;;-144.97;67.46
42415;BME280;28058;46.344;17.786;2023-03-24T03:20:28;118336.50;;;-144.97;67.14
42415;BME280;28058;46.344;17.786;2023-03-24T03:23:01;118336.50;;;-144.97;66.79
42415;BME280;28058;46.344;17.786;2023-03-24T03:25:32;118336.50;;;-144.97;66.83
42415;BME280;28058;46.344;17.786;2023-03-24T03:28:01;118336.50;;;-144.97;66.33
42415;BME280;28058;46.344;17.786;2023-03-24T03:33:02;118336.50;;;-144.97;66.72
42415;BME280;28058;46.344;17.786;2023-03-24T03:38:24;118336.50;;;-144.97;65.79
42415;BME280;28058;46.344;17.786;2023-03-24T03:40:55;118336.50;;;-144.97;65.94
42415;BME280;28058;46.344;17.786;2023-03-24T03:43:25;118336.50;;;-144.97;65.35
42415;BME280;28058;46.344;17.786;2023-03-24T03:45:53;118336.50;;;-144.97;66.43
42415;BME280;28058;46.344;17.786;2023-03-24T03:48:19;118336.50;;;-144.97;65.82
42415;BME280;28058;46.344;17.786;2023-03-24T03:50:46;118336.50;;;-144.97;65.53
42415;BME280;28058;46.344;17.786;2023-03-24T03:53:17;118336.50;;;-144.97;65.32
42415;BME280;28058;46.344;17.786;2023-03-24T03:55:46;118336.50;;;-144.97;64.64
42415;BME280;28058;46.344;17.786;2023-03-24T03:58:12;118336.50;;;-144.97;65.13
42415;BME280;28058;46.344;17.786;2023-03-24T04:00:39;118336.50;;;-144.97;64.93
42415;BME280;28058;46.344;17.786;2023-03-24T04:03:12;118336.50;;;-144.97;64.68
42415;BME280;28058;46.344;17.786;2023-03-24T04:05:46;118336.50;;;-144.97;64.17
42415;BME280;28058;46.344;17.786;2023-03-24T04:10:55;118336.50;;;-144.97;64.18
42415;BME280;28058;46.344;17.786;2023-03-24T04:18:30;118336.50;;;-144.97;63.00
42415;BME280;28058;46.344;17.786;2023-03-24T04:21:04;118336.50;;;-144.97;63.58
42415;BME280;28058;46.344;17.786;2023-03-24T04:30:13;118336.50;;;-144.97;63.20
42415;BME280;28058;46.344;17.786;2023-03-24T04:32:14;118336.50;;;-144.97;63.55
42415;BME280;28058;46.344;17.786;2023-03-24T04:34:46;118336.50;;;-144.97;63.43
42415;BME280;28058;46.344;17.786;2023-03-24T04:37:17;118336.50;;;-144.97;62.97
42415;BME280;28058;46.344;17.786;2023-03-24T04:39:45;118336.50;;;-144.97;62.75
42415;BME280;28058;46.344;17.786;2023-03-24T04:42:16;118336.50;;;-144.97;63.37
42415;BME280;28058;46.344;17.786;2023-03-24T04:44:44;118336.50;;;-144.97;63.12
42415;BME280;28058;46.344;17.786;2023-03-24T04:47:12;118336.50;;;-144.97;63.11
42415;BME280;28058;46.344;17.786;2023-03-24T04:49:38;118336.50;;;-144.97;63.19
42415;BME280;28058;46.344;17.786;2023-03-24T04:52:06;118336.50;;;-144.97;62.53
42415;BME280;28058;46.344;17.786;2023-03-24T04:54:33;118336.50;;;-144.97;63.00
42415;BME280;28058;46.344;17.786;2023-03-24T04:57:00;118336.50;;;-144.97;62.86
42415;BME280;28058;46.344;17.786;2023-03-24T04:59:28;118336.50;;;-144.97;63.46
42415;BME280;28058;46.344;17.786;2023-03-24T05:01:54;118336.50;;;-144.97;62.49
42415;BME280;28058;46.344;17.786;2023-03-24T05:04:23;118336.50;;;-144.97;62.25
42415;BME280;28058;46.344;17.786;2023-03-24T05:06:50;118336.50;;;-144.97;62.14
42415;BME280;28058;46.344;17.786;2023-03-24T05:09:17;118336.50;;;-144.97;63.01
42415;BME280;28058;46.344;17.786;2023-03-24T05:11:44;118336.50;;;-144.97;62.13
42415;BME280;28058;46.344;17.786;2023-03-24T05:14:11;118336.50;;;-144.97;62.05
42415;BME280;28058;46.344;17.786;2023-03-24T05:16:38;118336.50;;;-144.97;62.03
42415;BME280;28058;46.344;17.786;2023-03-24T05:19:05;118336.50;;;-144.97;62.16
42415;BME280;28058;46.344;17.786;2023-03-24T05:21:32;118336.50;;;-144.97;61.46
42415;BME280;28058;46.344;17.786;2023-03-24T05:23:59;118336.50;;;-144.97;61.38
42415;BME280;28058;46.344;17.786;2023-03-24T05:26:26;118336.50;;;-144.97;61.67
42415;BME280;28058;46.344;17.786;2023-03-24T05:28:53;118336.50;;;-144.97;61.92
42415;BME280;28058;46.344;17.786;2023-03-24T05:31:19;118336.50;;;-144.97;62.06
42415;BME280;28058;46.344;17.786;2023-03-24T05:33:46;118336.50;;;-144.97;60.50
42415;BME280;28058;46.344;17.786;2023-03-24T05:36:14;118336.50;;;-144.97;61.13
42415;BME280;28058;46.344;17.786;2023-03-24T05:38:40;118336.50;;;-144.97;61.13
42415;BME280;28058;46.344;17.786;2023-03-24T05:41:07;118336.50;;;-144.97;61.39
42415;BME280;28058;46.344;17.786;2023-03-24T05:43:34;118336.50;;;-144.97;60.91
42415;BME280;28058;46.344;17.786;2023-03-24T05:46:01;118336.50;;;-144.97;60.12
42415;BME280;28058;46.344;17.786;2023-03-24T05:48:28;118336.50;;;-144.97;60.61
42415;BME280;28058;46.344;17.786;2023-03-24T05:50:55;118336.50;;;-144.97;60.55
42415;BME280;28058;46.344;17.786;2023-03-24T05:53:21;118336.50;;;-144.97;59.15
42415;BME280;28058;46.344;17.786;2023-03-24T05:55:48;118336.50;;;-144.97;58.81
42415;BME280;28058;46.344;17.786;2023-03-24T05:58:15;118336.50;;;-144.97;59.65
42415;BME280;28058;46.344;17.786;2023-03-24T06:00:41;118336.50;;;-144.97;58.24
42415;BME280;28058;46.344;17.786;2023-03-24T06:03:09;118336.50;;;-144.97;58.51
42415;BME280;28058;46.344;17.786;2023-03-24T06:05:35;118336.50;;;-144.97;55.95
42415;BME280;28058;46.344;17.786;2023-03-24T06:08:02;118336.50;;;-144.97;57.06
42415;BME280;28058;46.344;17.786;2023-03-24T06:10:29;118336.50;;;-144.97;56.06
42415;BME280;28058;46.344;17.786;2023-03-24T06:12:56;118336.50;;;-144.97;55.58
42415;BME280;28058;46.344;17.786;2023-03-24T06:15:23;118336.50;;;-144.97;55.85
42415;BME280;28058;46.344;17.786;2023-03-24T06:17:53;118336.50;;;-144.97;55.80
42415;BME280;28058;46.344;17.786;2023-03-24T06:20:20;118336.50;;;-144.97;55.36
42415;BME280;28058;46.344;17.786;2023-03-24T06:22:47;118336.50;;;-144.97;55.14
42415;BME280;28058;46.344;17.786;2023-03-24T06:25:14;118336.50;;;-144.97;55.79
42415;BME280;28058;46.344;17.786;2023-03-24T06:27:43;118336.50;;;-144.97;56.59
42415;BME280;28058;46.344;17.786;2023-03-24T06:30:14;118336.50;;;-144.97;54.40
42415;BME280;28058;46.344;17.786;2023-03-24T06:32:42;118336.50;;;-144.97;56.15
42415;BME280;28058;46.344;17.786;2023-03-24T06:35:12;118336.50;;;-144.97;54.67
42415;BME280;28058;46.344;17.786;2023-03-24T06:37:40;118336.50;;;-144.97;54.54
42415;BME280;28058;46.344;17.786;2023-03-24T06:40:07;118336.50;;;-144.97;54.74
42415;BME280;28058;46.344;17.786;2023-03-24T06:42:38;118336.50;;;-144.97;53.96
42415;BME280;28058;46.344;17.786;2023-03-24T06:45:05;118336.50;;;-144.97;54.01
42415;BME280;28058;46.344;17.786;2023-03-24T06:47:31;118336.50;;;-144.97;53.88
42415;BME280;28058;46.344;17.786;2023-03-24T06:49:59;118336.50;;;-144.97;48.83
42415;BME280;28058;46.344;17.786;2023-03-24T06:52:28;118336.50;;;-144.97;44.07
42415;BME280;28058;46.344;17.786;2023-03-24T06:54:55;118336.50;;;-144.97;41.21
42415;BME280;28058;46.344;17.786;2023-03-24T06:57:23;118336.50;;;-144.97;39.59
42415;BME280;28058;46.344;17.786;2023-03-24T06:59:49;118336.50;;;-144.97;38.13
42415;BME280;28058;46.344;17.786;2023-03-24T07:02:16;118336.50;;;-144.97;37.99
42415;BME280;28058;46.344;17.786;2023-03-24T07:04:44;118336.50;;;-144.97;37.80
42415;BME280;28058;46.344;17.786;2023-03-24T07:07:11;118336.50;;;-144.97;36.78
42415;BME280;28058;46.344;17.786;2023-03-24T07:09:58;118336.50;;;-144.97;36.68
42415;BME280;28058;46.344;17.786;2023-03-24T07:12:25;118336.50;;;-144.97;36.46
42415;BME280;28058;46.344;17.786;2023-03-24T07:14:51;118336.50;;;-144.97;35.76
42415;BME280;28058;46.344;17.786;2023-03-24T07:17:18;118336.50;;;-144.97;36.29
42415;BME280;28058;46.344;17.786;2023-03-24T07:19:45;118336.50;;;-144.97;36.16
42415;BME280;28058;46.344;17.786;2023-03-24T07:22:12;118336.50;;;-144.97;35.83
42415;BME280;28058;46.344;17.786;2023-03-24T07:24:39;118336.50;;;-144.97;35.47
42415;BME280;28058;46.344;17.786;2023-03-24T07:27:06;118336.50;;;-144.97;35.24
42415;BME280;28058;46.344;17.786;2023-03-24T07:29:33;118336.50;;;-144.97;34.84
42415;BME280;28058;46.344;17.786;2023-03-24T07:31:59;118336.50;;;-144.97;35.42
42415;BME280;28058;46.344;17.786;2023-03-24T07:34:26;118336.50;;;-144.97;34.41
42415;BME280;28058;46.344;17.786;2023-03-24T07:36:53;118336.50;;;-144.97;34.10
42415;BME280;28058;46.344;17.786;2023-03-24T07:39:21;118336.50;;;-144.97;34.67
42415;BME280;28058;46.344;17.786;2023-03-24T07:41:48;118336.50;;;-144.97;34.00
42415;BME280;28058;46.344;17.786;2023-03-24T07:44:14;118336.50;;;-144.97;33.68
42415;BME280;28058;46.344;17.786;2023-03-24T07:46:41;118336.50;;;-144.97;33.86
42415;BME280;28058;46.344;17.786;2023-03-24T07:49:08;118336.50;;;-144.97;33.51
42415;BME280;28058;46.344;17.786;2023-03-24T07:51:45;118336.50;;;-144.97;32.83
42415;BME280;28058;46.344;17.786;2023-03-24T07:54:11;118336.50;;;-144.97;32.50
42415;BME280;28058;46.344;17.786;2023-03-24T07:56:38;118336.50;;;-144.97;32.31
42415;BME280;28058;46.344;17.786;2023-03-24T07:59:05;118336.50;;;-144.97;32.08
42415;BME280;28058;46.344;17.786;2023-03-24T08:01:33;118336.50;;;-144.97;31.58
42415;BME280;28058;46.344;17.786;2023-03-24T08:04:02;118336.50;;;-144.97;32.33
42415;BME280;28058;46.344;17.786;2023-03-24T08:06:30;118336.50;;;-144.97;32.18
42415;BME280;28058;46.344;17.786;2023-03-24T08:08:56;118336.50;;;-144.97;31.48
42415;BME280;28058;46.344;17.786;2023-03-24T08:11:23;118336.50;;;-144.97;31.68
42415;BME280;28058;46.344;17.786;2023-03-24T08:13:50;118336.50;;;-144.97;31.49
42415;BME280;28058;46.344;17.786;2023-03-24T08:16:16;118336.50;;;-144.97;30.92
42415;BME280;28058;46.344;17.786;2023-03-24T08:18:44;118336.50;;;-144.97;30.53
42415;BME280;28058;46.344;17.786;2023-03-24T08:21:11;118336.50;;;-144.97;31.30
42415;BME280;28058;46.344;17.786;2023-03-24T08:23:38;118336.50;;;-144.97;31.66
42415;BME280;28058;46.344;17.786;2023-03-24T08:26:05;118336.50;;;-144.97;30.97
42415;BME280;28058;46.344;17.786;2023-03-24T08:28:32;118336.50;;;-144.97;31.47
42415;BME280;28058;46.344;17.786;2023-03-24T08:30:59;118336.50;;;-144.97;31.92
42415;BME280;28058;46.344;17.786;2023-03-24T08:33:26;118336.50;;;-144.97;32.34
42415;BME280;28058;46.344;17.786;2023-03-24T08:35:52;118336.50;;;-144.97;31.91
42415;BME280;28058;46.344;17.786;2023-03-24T08:38:23;118336.50;;;-144.97;31.52
42415;BME280;28058;46.344;17.786;2023-03-24T08:40:59;118336.50;;;-144.97;31.61
42415;BME280;28058;46.344;17.786;2023-03-24T08:43:28;118336.50;;;-144.97;30.02
42415;BME280;28058;46.344;17.786;2023-03-24T08:45:56;118336.50;;;-144.97;29.82
42415;BME280;28058;46.344;17.786;2023-03-24T08:48:22;118336.50;;;-144.97;30.55
42415;BME280;28058;46.344;17.786;2023-03-24T08:50:49;118336.50;;;-144.97;31.23
42415;BME280;28058;46.344;17.786;2023-03-24T08:53:16;118336.50;;;-144.97;31.09
42415;BME280;28058;46.344;17.786;2023-03-24T08:55:42;118336.50;;;-144.97;30.87
42415;BME280;28058;46.344;17.786;2023-03-24T08:58:14;118336.50;;;-144.97;30.95
42415;BME280;28058;46.344;17.786;2023-03-24T09:00:41;118336.50;;;-144.97;30.10
42415;BME280;28058;46.344;17.786;2023-03-24T09:03:14;118336.50;;;-144.97;30.75
42415;BME280;28058;46.344;17.786;2023-03-24T09:05:44;118336.50;;;-144.97;29.94
42415;BME280;28058;46.344;17.786;2023-03-24T09:08:15;118336.50;;;-144.97;31.04
42415;BME280;28058;46.344;17.786;2023-03-24T09:10:43;118336.50;;;-144.97;30.52
42415;BME280;28058;46.344;17.786;2023-03-24T09:13:12;118336.50;;;-144.97;30.83
42415;BME280;28058;46.344;17.786;2023-03-24T09:15:44;118336.50;;;-144.97;30.81
42415;BME280;28058;46.344;17.786;2023-03-24T09:18:10;118336.50;;;-144.97;30.71
42415;BME280;28058;46.344;17.786;2023-03-24T09:20:37;118336.50;;;-144.97;30.48
42415;BME280;28058;46.344;17.786;2023-03-24T09:23:04;118336.50;;;-144.97;31.89
42415;BME280;28058;46.344;17.786;2023-03-24T09:25:30;118336.50;;;-144.97;31.63
42415;BME280;28058;46.344;17.786;2023-03-24T09:27:57;118336.50;;;-144.97;32.02
42415;BME280;28058;46.344;17.786;2023-03-24T09:30:24;118336.50;;;-144.97;31.32
42415;BME280;28058;46.344;17.786;2023-03-24T09:32:51;118336.50;;;-144.97;31.99
42415;BME280;28058;46.344;17.786;2023-03-24T09:35:18;118336.50;;;-144.97;32.57
42415;BME280;28058;46.344;17.786;2023-03-24T09:37:44;118336.50;;;-144.97;32.86
42415;BME280;28058;46.344;17.786;2023-03-24T09:40:25;118336.50;;;-144.97;33.46
42415;BME280;28058;46.344;17.786;2023-03-24T09:43:13;118336.50;;;-144.97;32.72
42415;BME280;28058;46.344;17.786;2023-03-24T09:46:03;118336.50;;;-144.97;32.10
42415;BME280;28058;46.344;17.786;2023-03-24T09:51:09;118336.50;;;-144.97;32.38
42415;BME280;28058;46.344;17.786;2023-03-24T09:53:49;118336.50;;;-144.97;32.30
42415;BME280;28058;46.344;17.786;2023-03-24T09:56:18;118336.50;;;-144.97;32.58
42415;BME280;28058;46.344;17.786;2023-03-24T09:58:53;118336.50;;;-144.97;32.72
42415;BME280;28058;46.344;17.786;2023-03-24T10:01:25;118336.50;;;-144.97;32.98
42415;BME280;28058;46.344;17.786;2023-03-24T10:03:54;118336.50;;;-144.97;32.75
42415;BME280;28058;46.344;17.786;2023-03-24T10:06:22;118336.50;;;-144.97;32.96
42415;BME280;28058;46.344;17.786;2023-03-24T10:09:03;118336.50;;;-144.97;32.47
42415;BME280;28058;46.344;17.786;2023-03-24T10:17:02;118336.50;;;-144.97;33.15
42415;BME280;28058;46.344;17.786;2023-03-24T10:19:37;118336.50;;;-144.97;32.39
42415;BME280;28058;46.344;17.786;2023-03-24T10:24:44;118336.50;;;-144.97;32.91
42415;BME280;28058;46.344;17.786;2023-03-24T10:27:16;118336.50;;;-144.97;32.30
42415;BME280;28058;46.344;17.786;2023-03-24T10:29:47;118336.50;;;-144.97;32.64
42415;BME280;28058;46.344;17.786;2023-03-24T10:34:42;118336.50;;;-144.97;32.05
42415;BME280;28058;46.344;17.786;2023-03-24T10:37:11;118336.50;;;-144.97;32.42
42415;BME280;28058;46.344;17.786;2023-03-24T10:39:39;118336.50;;;-144.97;31.83
42415;BME280;28058;46.344;17.786;2023-03-24T10:42:17;118336.50;;;-144.97;31.77
42415;BME280;28058;46.344;17.786;2023-03-24T10:44:47;118336.50;;;-144.97;31.49
42415;BME280;28058;46.344;17.786;2023-03-24T10:47:15;118336.50;;;-144.97;31.34
42415;BME280;28058;46.344;17.786;2023-03-24T10:52:19;118336.50;;;-144.97;32.15
42415;BME280;28058;46.344;17.786;2023-03-24T10:54:57;118336.50;;;-144.97;31.72
42415;BME280;28058;46.344;17.786;2023-03-24T10:57:27;118336.50;;;-144.97;31.77
42415;BME280;28058;46.344;17.786;2023-03-24T11:00:05;118336.50;;;-144.97;31.60
42415;BME280;28058;46.344;17.786;2023-03-24T11:02:44;118336.50;;;-144.97;31.44
42415;BME280;28058;46.344;17.786;2023-03-24T11:05:18;118336.50;;;-144.97;31.10
42415;BME280;28058;46.344;17.786;2023-03-24T11:07:48;118336.50;;;-144.97;31.79
42415;BME280;28058;46.344;17.786;2023-03-24T11:10:18;118336.50;;;-144.97;31.05
42415;BME280;28058;46.344;17.786;2023-03-24T11:15:20;118336.50;;;-144.97;30.80
42415;BME280;28058;46.344;17.786;2023-03-24T11:17:52;118336.50;;;-144.97;30.39
42415;BME280;28058;46.344;17.786;2023-03-24T11:20:34;118336.50;;;-144.97;30.43
42415;BME280;28058;46.344;17.786;2023-03-24T11:23:08;118336.50;;;-144.97;30.19
42415;BME280;28058;46.344;17.786;2023-03-24T11:25:37;118336.50;;;-144.97;31.00
42415;BME280;28058;46.344;17.786;2023-03-24T11:28:06;118336.50;;;-144.97;31.09
42415;BME280;28058;46.344;17.786;2023-03-24T11:30:44;118336.50;;;-144.97;30.98
42415;BME280;28058;46.344;17.786;2023-03-24T11:33:15;118336.50;;;-144.97;30.92
42415;BME280;28058;46.344;17.786;2023-03-24T11:35:43;118336.50;;;-144.97;31.04
42415;BME280;28058;46.344;17.786;2023-03-24T11:38:28;118336.50;;;-144.97;31.37
42415;BME280;28058;46.344;17.786;2023-03-24T11:40:56;118336.50;;;-144.97;31.11
42415;BME280;28058;46.344;17.786;2023-03-24T11:43:27;118336.50;;;-144.97;30.87
42415;BME280;28058;46.344;17.786;2023-03-24T11:46:15;118336.50;;;-144.97;30.61
42415;BME280;28058;46.344;17.786;2023-03-24T11:48:46;118336.50;;;-144.97;30.57
42415;BME280;28058;46.344;17.786;2023-03-24T11:51:33;118336.50;;;-144.97;30.64
42415;BME280;28058;46.344;17.786;2023-03-24T11:54:05;118336.50;;;-144.97;30.43
42415;BME280;28058;46.344;17.786;2023-03-24T11:59:04;118336.50;;;-144.97;31.20
42415;BME280;28058;46.344;17.786;2023-03-24T12:01:37;118336.50;;;-144.97;30.55
42415;BME280;28058;46.344;17.786;2023-03-24T12:09:13;118336.50;;;-144.97;30.78
42415;BME280;28058;46.344;17.786;2023-03-24T12:14:17;118336.50;;;-144.97;30.59
42415;BME280;28058;46.344;17.786;2023-03-24T12:16:50;118336.50;;;-144.97;30.96
42415;BME280;28058;46.344;17.786;2023-03-24T12:22:23;118336.50;;;-144.97;30.98
42415;BME280;28058;46.344;17.786;2023-03-24T12:27:49;118336.50;;;-144.97;30.67
42415;BME280;28058;46.344;17.786;2023-03-24T12:30:23;118336.50;;;-144.97;30.92
42415;BME280;28058;46.344;17.786;2023-03-24T12:35:30;118336.50;;;-144.97;30.84
42415;BME280;28058;46.344;17.786;2023-03-24T12:46:19;118336.50;;;-144.97;30.84
42415;BME280;28058;46.344;17.786;2023-03-24T12:56:12;118336.50;;;-144.97;31.14
42415;BME280;28058;46.344;17.786;2023-03-24T13:03:37;118336.50;;;-144.97;30.64
42415;BME280;28058;46.344;17.786;2023-03-24T13:06:10;118336.50;;;-144.97;31.05
42415;BME280;28058;46.344;17.786;2023-03-24T13:08:44;118336.50;;;-144.97;31.35
42415;BME280;28058;46.344;17.786;2023-03-24T13:11:14;118336.50;;;-144.97;30.64
42415;BME280;28058;46.344;17.786;2023-03-24T13:13:58;118336.50;;;-144.97;30.98
42415;BME280;28058;46.344;17.786;2023-03-24T13:16:26;118336.50;;;-144.97;30.35
42415;BME280;28058;46.344;17.786;2023-03-24T13:18:56;118336.50;;;-144.97;30.67
42415;BME280;28058;46.344;17.786;2023-03-24T13:21:28;118336.50;;;-144.97;30.77
42415;BME280;28058;46.344;17.786;2023-03-24T13:26:38;118336.50;;;-144.97;30.71
42415;BME280;28058;46.344;17.786;2023-03-24T13:29:10;118336.50;;;-144.97;31.10
42415;BME280;28058;46.344;17.786;2023-03-24T13:31:40;118336.50;;;-144.97;30.76
42415;BME280;28058;46.344;17.786;2023-03-24T13:34:31;118336.50;;;-144.97;31.06
42415;BME280;28058;46.344;17.786;2023-03-24T13:39:26;118336.50;;;-144.97;30.47
42415;BME280;28058;46.344;17.786;2023-03-24T13:41:54;118336.50;;;-144.97;30.30
42415;BME280;28058;46.344;17.786;2023-03-24T13:44:41;118336.50;;;-144.97;29.88
42415;BME280;28058;46.344;17.786;2023-03-24T13:49:36;118336.50;;;-144.97;29.66
42415;BME280;28058;46.344;17.786;2023-03-24T13:52:04;118336.50;;;-144.97;30.51
42415;BME280;28058;46.344;17.786;2023-03-24T13:54:34;118336.50;;;-144.97;29.26
42415;BME280;28058;46.344;17.786;2023-03-24T13:57:05;118336.50;;;-144.97;29.46
42415;BME280;28058;46.344;17.786;2023-03-24T14:02:20;118336.50;;;-144.97;29.90
42415;BME280;28058;46.344;17.786;2023-03-24T14:09:56;118336.50;;;-144.97;29.54
42415;BME280;28058;46.344;17.786;2023-03-24T14:12:23;118336.50;;;-144.97;29.99
42415;BME280;28058;46.344;17.786;2023-03-24T14:17:52;118336.50;;;-144.97;30.27
42415;BME280;28058;46.344;17.786;2023-03-24T14:20:24;118336.50;;;-144.97;30.25
42415;BME280;28058;46.344;17.786;2023-03-24T14:22:51;118336.50;;;-144.97;30.83
42415;BME280;28058;46.344;17.786;2023-03-24T14:25:23;118336.50;;;-144.97;30.87
42415;BME280;28058;46.344;17.786;2023-03-24T14:27:51;118336.50;;;-144.97;30.58
42415;BME280;28058;46.344;17.786;2023-03-24T14:30:19;118336.50;;;-144.97;30.39
42415;BME280;28058;46.344;17.786;2023-03-24T14:32:49;118336.50;;;-144.97;30.27
42415;BME280;28058;46.344;17.786;2023-03-24T14:35:19;118336.50;;;-144.97;30.49
42415;BME280;28058;46.344;17.786;2023-03-24T14:37:52;118336.50;;;-144.97;31.04